createdAt,value
2018-04-07T00:00:21.779Z,81.00
2018-04-07T00:02:49.334Z,81.00
2018-04-07T00:05:16.861Z,80.40
2018-04-07T00:07:44.423Z,80.50
2018-04-07T00:10:11.946Z,81.30
2018-04-07T00:12:39.502Z,81.10
2018-04-07T00:15:07.045Z,81.90
2018-04-07T00:17:34.554Z,82.20
2018-04-07T00:20:02.126Z,82.50
2018-04-07T00:22:29.686Z,82.90
2018-04-07T00:24:57.212Z,83.40
2018-04-07T00:27:24.735Z,82.60
2018-04-07T00:29:52.277Z,82.70
2018-04-07T00:32:19.791Z,83.30
2018-04-07T00:34:47.335Z,84.30
2018-04-07T00:37:14.850Z,84.10
2018-04-07T00:39:43.306Z,83.60
2018-04-07T00:42:12.791Z,85.50
2018-04-07T00:44:40.338Z,84.80
2018-04-07T00:47:07.860Z,84.50
2018-04-07T00:49:35.386Z,84.20
2018-04-07T00:52:02.934Z,85.00
2018-04-07T00:54:30.456Z,85.00
2018-04-07T00:56:58.013Z,84.80
2018-04-07T00:59:25.535Z,85.00
2018-04-07T01:01:53.071Z,85.60
2018-04-07T01:04:20.594Z,85.30
2018-04-07T01:06:48.142Z,85.70
2018-04-07T01:09:16.430Z,85.90
2018-04-07T01:11:43.954Z,85.70
2018-04-07T01:14:11.502Z,86.80
2018-04-07T01:16:39.779Z,86.80
2018-04-07T01:19:08.195Z,86.60
2018-04-07T01:21:35.719Z,86.70
2018-04-07T01:24:04.178Z,87.30
2018-04-07T01:26:31.714Z,86.70
2018-04-07T01:28:59.230Z,87.70
2018-04-07T01:31:26.782Z,88.00
2018-04-07T01:33:55.074Z,88.50
2018-04-07T01:36:22.600Z,88.50
2018-04-07T01:38:50.142Z,89.10
2018-04-07T01:41:17.669Z,89.60
2018-04-07T01:43:45.217Z,89.30
2018-04-07T01:46:12.759Z,89.80
2018-04-07T01:48:40.271Z,90.10
2018-04-07T01:51:07.836Z,90.00
2018-04-07T01:53:36.121Z,89.40
2018-04-07T01:56:03.675Z,89.40
2018-04-07T01:58:31.189Z,89.20
2018-04-07T02:00:58.706Z,90.00
2018-04-07T02:03:26.252Z,90.10
2018-04-07T02:05:53.763Z,90.20
2018-04-07T02:08:21.311Z,90.20
2018-04-07T02:10:48.833Z,90.00
2018-04-07T02:13:16.342Z,89.70
2018-04-07T02:15:43.886Z,90.10
2018-04-07T02:18:11.402Z,90.10
2018-04-07T02:20:38.942Z,90.20
2018-04-07T02:23:06.460Z,90.40
2018-04-07T02:25:34.002Z,90.60
2018-04-07T02:28:01.556Z,90.50
2018-04-07T02:30:29.072Z,90.40
2018-04-07T02:32:56.641Z,90.30
2018-04-07T02:35:24.173Z,90.50
2018-04-07T02:37:52.650Z,90.60
2018-04-07T02:40:21.225Z,90.60
2018-04-07T02:42:48.734Z,90.60
2018-04-07T02:45:16.296Z,90.20
2018-04-07T02:47:43.807Z,90.30
2018-04-07T02:50:11.314Z,90.40
2018-04-07T02:52:38.854Z,90.40
2018-04-07T02:55:06.364Z,90.30
2018-04-07T02:57:33.908Z,90.50
2018-04-07T03:00:04.217Z,90.50
2018-04-07T03:02:31.727Z,90.50
2018-04-07T03:04:59.269Z,90.60
2018-04-07T03:07:26.780Z,90.60
2018-04-07T03:09:54.318Z,90.70
2018-04-07T03:12:21.831Z,90.60
2018-04-07T03:14:49.373Z,90.60
2018-04-07T03:17:17.662Z,90.70
2018-04-07T03:19:45.966Z,90.30
2018-04-07T03:22:13.494Z,90.30
2018-04-07T03:24:41.043Z,91.00
2018-04-07T03:27:08.560Z,90.90
2018-04-07T03:29:36.112Z,90.80
2018-04-07T03:32:03.617Z,90.70
2018-04-07T03:34:31.159Z,91.00
2018-04-07T03:36:58.682Z,90.90
2018-04-07T03:39:26.231Z,90.80
2018-04-07T03:41:53.751Z,90.60
2018-04-07T03:44:21.291Z,90.20
2018-04-07T03:46:48.819Z,90.10
2018-04-07T03:49:16.360Z,90.40
2018-04-07T03:51:44.902Z,90.50
2018-04-07T03:54:12.453Z,90.40
2018-04-07T03:56:39.973Z,91.00
2018-04-07T03:59:07.511Z,90.70
2018-04-07T04:01:35.031Z,90.80
2018-04-07T04:04:02.586Z,90.90
2018-04-07T04:06:30.920Z,90.90
2018-04-07T04:08:58.470Z,90.90
2018-04-07T04:11:25.985Z,91.00
2018-04-07T04:13:55.484Z,91.10
2018-04-07T04:16:24.515Z,90.80
2018-04-07T04:18:52.057Z,90.70
2018-04-07T04:21:20.329Z,90.90
2018-04-07T04:23:48.630Z,90.80
2018-04-07T04:26:16.152Z,90.70
2018-04-07T04:28:43.687Z,90.80
2018-04-07T04:31:11.467Z,90.50
2018-04-07T04:33:39.006Z,90.70
2018-04-07T04:36:06.517Z,90.60
2018-04-07T04:38:34.815Z,90.90
2018-04-07T04:41:02.346Z,90.90
2018-04-07T04:43:29.886Z,90.90
2018-04-07T04:45:57.418Z,91.10
2018-04-07T04:48:24.955Z,91.10
2018-04-07T04:50:52.484Z,91.20
2018-04-07T04:53:22.012Z,91.40
2018-04-07T04:55:49.549Z,91.40
2018-04-07T04:58:17.164Z,90.90
2018-04-07T05:00:45.569Z,91.50
2018-04-07T05:03:13.102Z,91.20
2018-04-07T05:05:40.614Z,91.30
2018-04-07T05:08:08.150Z,91.20
2018-04-07T05:10:37.384Z,90.90
2018-04-07T05:13:04.934Z,90.90
2018-04-07T05:15:32.450Z,91.20
2018-04-07T05:17:59.998Z,90.90
2018-04-07T05:20:27.510Z,90.70
2018-04-07T05:22:55.050Z,90.90
2018-04-07T05:25:22.583Z,91.10
2018-04-07T05:27:50.132Z,91.40
2018-04-07T05:30:17.651Z,91.30
2018-04-07T05:32:45.186Z,91.20
2018-04-07T05:35:13.467Z,90.70
2018-04-07T05:37:41.868Z,90.70
2018-04-07T05:40:09.401Z,91.00
2018-04-07T05:42:37.702Z,90.20
2018-04-07T05:45:05.886Z,90.20
2018-04-07T05:47:33.436Z,90.20
2018-04-07T05:50:00.977Z,90.30
2018-04-07T05:52:28.528Z,90.00
2018-04-07T05:54:56.044Z,89.80
2018-04-07T05:57:23.601Z,89.80
2018-04-07T05:59:51.129Z,90.00
2018-04-07T06:02:18.965Z,89.40
2018-04-07T06:04:46.489Z,89.50
2018-04-07T06:07:14.042Z,90.00
2018-04-07T06:09:41.562Z,89.50
2018-04-07T06:12:09.115Z,88.30
2018-04-07T06:14:36.632Z,88.40
2018-04-07T06:17:04.186Z,88.10
2018-04-07T06:19:31.703Z,86.80
2018-04-07T06:21:59.260Z,87.20
2018-04-07T06:24:26.784Z,86.20
2018-04-07T06:26:55.098Z,85.30
2018-04-07T06:29:22.634Z,85.30
2018-04-07T06:31:50.199Z,83.90
2018-04-07T06:34:17.714Z,83.60
2018-04-07T06:36:45.258Z,82.50
2018-04-07T06:39:12.779Z,82.50
2018-04-07T06:41:40.325Z,81.70
2018-04-07T06:44:07.850Z,79.60
2018-04-07T06:46:35.416Z,78.30
2018-04-07T06:49:02.921Z,77.30
2018-04-07T06:51:30.504Z,75.20
2018-04-07T06:53:58.020Z,74.20
2018-04-07T06:56:25.585Z,73.60
2018-04-07T06:58:53.894Z,72.70
2018-04-07T07:01:21.447Z,72.70
2018-04-07T07:03:48.967Z,70.90
2018-04-07T07:06:18.470Z,71.40
2018-04-07T07:08:47.726Z,71.80
2018-04-07T07:11:15.266Z,71.80
2018-04-07T07:13:42.802Z,72.00
2018-04-07T07:16:10.356Z,69.90
2018-04-07T07:18:37.879Z,66.90
2018-04-07T07:21:05.425Z,66.90
2018-04-07T07:23:32.968Z,66.10
2018-04-07T07:26:01.474Z,66.70
2018-04-07T07:28:29.002Z,65.90
2018-04-07T07:30:56.572Z,65.20
2018-04-07T07:33:24.098Z,65.60
2018-04-07T07:35:51.656Z,66.30
2018-04-07T07:38:19.174Z,65.60
2018-04-07T07:40:47.669Z,63.20
2018-04-07T07:43:15.989Z,62.20
2018-04-07T07:45:43.553Z,62.20
2018-04-07T07:48:11.095Z,59.50
2018-04-07T07:50:38.653Z,58.60
2018-04-07T07:53:07.150Z,58.50
2018-04-07T07:55:34.712Z,57.00
2018-04-07T07:58:02.238Z,54.80
2018-04-07T08:00:29.809Z,54.60
2018-04-07T08:02:57.337Z,54.90
2018-04-07T08:05:25.662Z,53.50
2018-04-07T08:07:53.191Z,53.50
2018-04-07T08:10:21.743Z,53.00
2018-04-07T08:12:49.307Z,53.20
2018-04-07T08:15:16.876Z,51.60
2018-04-07T08:17:44.402Z,52.00
2018-04-07T08:20:11.945Z,51.40
2018-04-07T08:22:40.423Z,51.20
2018-04-07T08:25:07.993Z,48.80
2018-04-07T08:27:35.520Z,49.20
2018-04-07T08:30:03.079Z,51.30
2018-04-07T08:32:30.597Z,52.50
2018-04-07T08:34:58.176Z,49.70
2018-04-07T08:37:26.482Z,51.70
2018-04-07T08:39:54.055Z,51.70
2018-04-07T08:42:21.589Z,53.30
2018-04-07T08:44:49.159Z,53.30
2018-04-07T08:47:16.709Z,54.00
2018-04-07T08:49:44.259Z,53.30
2018-04-07T08:52:11.777Z,54.40
2018-04-07T08:54:40.070Z,51.60
2018-04-07T08:57:07.619Z,51.50
2018-04-07T08:59:35.155Z,49.60
2018-04-07T09:02:02.746Z,49.10
2018-04-07T09:04:30.305Z,49.70
2018-04-07T09:06:58.620Z,49.90
2018-04-07T09:09:27.113Z,49.60
2018-04-07T09:11:54.666Z,47.80
2018-04-07T09:14:22.206Z,47.90
2018-04-07T09:16:49.751Z,48.40
2018-04-07T09:19:18.066Z,46.10
2018-04-07T09:21:45.586Z,46.10
2018-04-07T09:24:13.938Z,47.00
2018-04-07T09:26:41.509Z,47.00
2018-04-07T09:29:09.058Z,46.40
2018-04-07T09:31:37.561Z,47.20
2018-04-07T09:34:05.111Z,48.20
2018-04-07T09:36:32.816Z,47.20
2018-04-07T09:39:00.398Z,40.60
2018-04-07T09:41:27.958Z,43.50
2018-04-07T09:43:56.500Z,42.50
2018-04-07T09:46:24.094Z,41.30
2018-04-07T09:48:51.618Z,41.70
2018-04-07T09:51:19.198Z,41.40
2018-04-07T09:53:46.756Z,41.70
2018-04-07T09:56:15.337Z,41.10
2018-04-07T09:58:42.868Z,41.80
2018-04-07T10:01:10.417Z,42.60
2018-04-07T10:03:38.707Z,40.50
2018-04-07T10:06:08.252Z,40.50
2018-04-07T10:08:35.775Z,40.10
2018-04-07T10:11:03.355Z,42.30
2018-04-07T10:13:30.865Z,42.60
2018-04-07T10:15:58.411Z,40.90
2018-04-07T10:18:25.934Z,42.10
2018-04-07T10:20:53.481Z,42.90
2018-04-07T10:23:22.003Z,43.20
2018-04-07T10:25:49.566Z,44.70
2018-04-07T10:28:17.120Z,45.20
2018-04-07T10:30:44.648Z,45.80
2018-04-07T10:33:14.144Z,46.40
2018-04-07T10:35:41.669Z,47.10
2018-04-07T10:38:09.997Z,48.90
2018-04-07T10:40:37.515Z,48.90
2018-04-07T10:43:05.837Z,48.70
2018-04-07T10:45:33.376Z,48.70
2018-04-07T10:48:00.926Z,48.20
2018-04-07T10:50:28.449Z,48.70
2018-04-07T10:52:55.966Z,48.50
2018-04-07T10:55:23.544Z,47.80
2018-04-07T10:57:51.072Z,47.30
2018-04-07T11:00:18.645Z,47.30
2018-04-07T11:02:46.173Z,47.50
2018-04-07T11:05:13.719Z,48.30
2018-04-07T11:07:42.020Z,47.20
2018-04-07T11:10:10.616Z,47.20
2018-04-07T11:12:38.202Z,46.80
2018-04-07T11:15:05.803Z,45.00
2018-04-07T11:17:34.120Z,43.30
2018-04-07T11:20:01.672Z,43.20
2018-04-07T11:22:29.226Z,43.60
2018-04-07T11:24:56.763Z,44.50
2018-04-07T11:27:24.309Z,44.90
2018-04-07T11:29:52.629Z,43.10
2018-04-07T11:32:20.173Z,43.10
2018-04-07T11:34:47.722Z,43.00
2018-04-07T11:37:15.282Z,43.20
2018-04-07T11:39:42.809Z,43.30
2018-04-07T11:42:10.357Z,42.40
2018-04-07T11:44:37.899Z,42.30
2018-04-07T11:47:05.449Z,42.10
2018-04-07T11:49:32.974Z,41.00
2018-04-07T11:52:00.539Z,42.10
2018-04-07T11:54:28.947Z,40.70
2018-04-07T11:56:56.592Z,40.90
2018-04-07T11:59:24.134Z,40.00
2018-04-07T12:01:53.684Z,39.20
2018-04-07T12:04:22.194Z,39.30
2018-04-07T12:06:50.520Z,38.70
2018-04-07T12:09:18.042Z,38.60
2018-04-07T12:11:46.328Z,36.40
2018-04-07T12:14:13.885Z,36.40
2018-04-07T12:16:41.430Z,36.40
2018-04-07T12:19:10.963Z,36.40
2018-04-07T12:21:38.494Z,36.30
2018-04-07T12:24:07.784Z,34.30
2018-04-07T12:26:35.350Z,34.20
2018-04-07T12:29:03.672Z,32.80
2018-04-07T12:31:31.225Z,32.80
2018-04-07T12:33:58.799Z,31.60
2018-04-07T12:36:26.363Z,32.00
2018-04-07T12:38:53.897Z,31.10
2018-04-07T12:41:21.450Z,31.00
2018-04-07T12:43:49.983Z,31.70
2018-04-07T12:46:17.535Z,31.60
2018-04-07T12:48:46.013Z,31.00
2018-04-07T12:51:13.591Z,30.90
2018-04-07T12:53:41.185Z,30.50
2018-04-07T12:56:09.790Z,29.50
2018-04-07T12:58:37.333Z,29.60
2018-04-07T13:01:05.554Z,28.50
2018-04-07T13:03:33.135Z,27.90
2018-04-07T13:06:00.664Z,27.10
2018-04-07T13:08:28.223Z,28.00
2018-04-07T13:13:29.634Z,27.80
2018-04-07T13:15:57.927Z,28.80
2018-04-07T13:18:26.546Z,28.80
2018-04-07T13:20:54.094Z,28.60
2018-04-07T13:23:21.858Z,29.00
2018-04-07T13:25:50.533Z,29.00
2018-04-07T13:28:19.103Z,30.60
2018-04-07T13:30:46.662Z,30.70
2018-04-07T13:33:14.354Z,30.60
2018-04-07T13:35:41.905Z,30.00
2018-04-07T13:38:10.376Z,28.80
2018-04-07T13:40:37.931Z,28.90
2018-04-07T13:43:05.457Z,28.70
2018-04-07T13:45:33.769Z,29.00
2018-04-07T13:48:02.250Z,29.00
2018-04-07T13:50:30.730Z,28.00
2018-04-07T13:52:58.282Z,28.50
2018-04-07T13:55:25.806Z,28.40
2018-04-07T13:57:53.366Z,29.40
2018-04-07T14:00:21.655Z,29.30
2018-04-07T14:02:49.193Z,29.20
2018-04-07T14:05:17.718Z,29.10
2018-04-07T14:07:45.280Z,27.90
2018-04-07T14:10:12.839Z,27.20
2018-04-07T14:12:40.498Z,27.50
2018-04-07T14:15:09.018Z,27.10
2018-04-07T14:17:36.557Z,26.80
2018-04-07T14:20:04.122Z,26.50
2018-04-07T14:22:31.642Z,25.70
2018-04-07T14:24:59.233Z,27.00
2018-04-07T14:27:26.858Z,27.10
2018-04-07T14:29:54.398Z,26.70
2018-04-07T14:32:21.913Z,26.80
2018-04-07T14:34:49.562Z,25.70
2018-04-07T14:37:17.173Z,25.00
2018-04-07T14:39:44.694Z,26.60
2018-04-07T14:42:12.444Z,27.10
2018-04-07T14:44:40.938Z,26.10
2018-04-07T14:47:08.490Z,26.20
2018-04-07T14:49:36.014Z,26.30
2018-04-07T14:52:03.566Z,26.40
2018-04-07T14:54:31.850Z,27.70
2018-04-07T14:56:59.385Z,27.70
2018-04-07T14:59:26.937Z,26.50
2018-04-07T15:01:54.456Z,25.10
2018-04-07T15:04:22.007Z,26.00
2018-04-07T15:06:49.543Z,25.00
2018-04-07T15:09:17.875Z,24.30
2018-04-07T15:11:45.397Z,24.30
2018-04-07T15:14:13.081Z,24.60
2018-04-07T15:16:40.643Z,25.10
2018-04-07T15:19:08.169Z,25.00
2018-04-07T15:21:35.724Z,24.60
2018-04-07T15:24:04.001Z,25.40
2018-04-07T15:26:32.499Z,25.40
2018-04-07T15:29:00.034Z,24.40
2018-04-07T15:31:27.583Z,23.80
2018-04-07T15:33:55.130Z,23.60
2018-04-07T15:36:22.686Z,22.50
2018-04-07T15:38:50.225Z,21.80
2018-04-07T15:41:18.707Z,21.40
2018-04-07T15:43:46.278Z,21.60
2018-04-07T15:46:14.387Z,21.10
2018-04-07T15:48:41.936Z,21.30
2018-04-07T15:51:10.221Z,21.30
2018-04-07T15:53:37.826Z,21.30
2018-04-07T15:56:05.371Z,21.50
2018-04-07T15:58:32.898Z,21.60
2018-04-07T16:01:01.255Z,22.00
2018-04-07T16:03:29.560Z,21.80
2018-04-07T16:05:57.114Z,21.80
2018-04-07T16:08:25.397Z,23.40
2018-04-07T16:10:52.971Z,23.40
2018-04-07T16:13:20.525Z,24.80
2018-04-07T16:15:48.070Z,25.60
2018-04-07T16:18:15.586Z,26.20
2018-04-07T16:20:43.137Z,26.50
2018-04-07T16:23:10.658Z,26.80
2018-04-07T16:25:38.169Z,28.40
2018-04-07T16:28:05.724Z,28.30
2018-04-07T16:30:34.039Z,29.60
2018-04-07T16:33:01.594Z,29.10
2018-04-07T16:35:29.879Z,28.80
2018-04-07T16:37:57.418Z,28.80
2018-04-07T16:40:25.710Z,35.80
2018-04-07T16:42:54.805Z,35.70
2018-04-07T16:45:24.082Z,36.60
2018-04-07T16:47:51.599Z,36.60
2018-04-07T16:50:19.143Z,37.90
2018-04-07T16:52:46.681Z,38.50
2018-04-07T16:55:14.234Z,39.00
2018-04-07T16:57:41.754Z,40.60
2018-04-07T17:00:11.239Z,41.10
2018-04-07T17:02:38.801Z,40.80
2018-04-07T17:05:06.365Z,41.80
2018-04-07T17:07:33.898Z,40.60
2018-04-07T17:10:01.424Z,41.60
2018-04-07T17:12:29.003Z,43.10
2018-04-07T17:14:56.531Z,44.40
2018-04-07T17:17:24.091Z,45.40
2018-04-07T17:19:54.547Z,45.80
2018-04-07T17:22:22.108Z,46.60
2018-04-07T17:24:49.762Z,47.30
2018-04-07T17:27:18.053Z,47.90
2018-04-07T17:29:47.555Z,47.90
2018-04-07T17:32:15.086Z,48.40
2018-04-07T17:34:42.648Z,48.70
2018-04-07T17:37:10.162Z,48.80
2018-04-07T17:39:37.713Z,50.00
2018-04-07T17:42:05.252Z,51.00
2018-04-07T17:44:32.811Z,51.50
2018-04-07T17:47:00.353Z,52.40
2018-04-07T17:49:27.887Z,52.70
2018-04-07T17:51:55.472Z,53.50
2018-04-07T17:54:23.002Z,54.10
2018-04-07T17:56:50.573Z,54.50
2018-04-07T17:59:18.865Z,54.40
2018-04-07T18:01:47.157Z,54.40
2018-04-07T18:04:14.727Z,54.30
2018-04-07T18:06:42.255Z,53.20
2018-04-07T18:09:10.924Z,51.00
2018-04-07T18:11:38.689Z,51.00
2018-04-07T18:14:06.982Z,50.40
2018-04-07T18:16:35.541Z,50.00
2018-04-07T18:19:03.071Z,50.00
2018-04-07T18:21:30.623Z,50.30
2018-04-07T18:23:59.765Z,51.80
2018-04-07T18:26:28.097Z,53.90
2018-04-07T18:28:55.647Z,53.90
2018-04-07T18:31:24.136Z,54.50
2018-04-07T18:33:51.680Z,52.00
2018-04-07T18:36:19.228Z,49.20
2018-04-07T18:38:46.841Z,48.10
2018-04-07T18:41:14.380Z,48.50
2018-04-07T18:43:43.899Z,48.00
2018-04-07T18:46:11.589Z,49.30
2018-04-07T18:48:39.154Z,46.80
2018-04-07T18:51:07.446Z,44.70
2018-04-07T18:53:35.118Z,44.70
2018-04-07T18:56:02.902Z,42.90
2018-04-07T18:58:30.422Z,44.30
2018-04-07T19:00:58.030Z,44.80
2018-04-07T19:03:25.556Z,49.30
2018-04-07T19:05:53.134Z,49.20
2018-04-07T19:08:20.656Z,45.00
2018-04-07T19:10:48.220Z,43.70
2018-04-07T19:13:16.557Z,46.80
2018-04-07T19:15:44.094Z,46.70
2018-04-07T19:18:13.588Z,50.50
2018-04-07T19:20:41.146Z,53.80
2018-04-07T19:23:08.691Z,54.70
2018-04-07T19:25:36.232Z,53.90
2018-04-07T19:28:04.548Z,49.50
2018-04-07T19:30:32.098Z,49.50
2018-04-07T19:33:05.293Z,48.00
2018-04-07T19:35:32.864Z,47.50
2018-04-07T19:38:00.397Z,48.60
2018-04-07T19:40:27.955Z,48.90
2018-04-07T19:42:55.493Z,50.40
2018-04-07T19:45:23.782Z,53.30
2018-04-07T19:47:51.346Z,53.20
2018-04-07T19:50:18.857Z,55.80
2018-04-07T19:52:46.406Z,57.10
2018-04-07T19:55:14.144Z,57.60
2018-04-07T19:57:41.792Z,57.30
2018-04-07T20:00:09.328Z,58.30
2018-04-07T20:02:36.850Z,57.90
2018-04-07T20:05:04.398Z,52.90
2018-04-07T20:07:31.921Z,51.20
2018-04-07T20:09:59.467Z,51.90
2018-04-07T20:12:27.760Z,50.80
2018-04-07T20:14:55.312Z,50.80
2018-04-07T20:17:22.845Z,51.90
2018-04-07T20:19:50.362Z,52.20
2018-04-07T20:22:17.910Z,53.30
2018-04-07T20:24:45.558Z,54.10
2018-04-07T20:27:13.141Z,55.40
2018-04-07T20:29:41.217Z,57.00
2018-04-07T20:32:08.801Z,57.60
2018-04-07T20:34:36.351Z,57.10
2018-04-07T20:37:03.896Z,58.10
2018-04-07T20:39:31.458Z,57.90
2018-04-07T20:42:10.755Z,57.90
2018-04-07T20:44:38.321Z,57.80
2018-04-07T20:47:06.913Z,57.60
2018-04-07T20:49:36.374Z,58.70
2018-04-07T20:52:03.898Z,58.70
2018-04-07T20:54:32.380Z,60.00
2018-04-07T20:56:59.922Z,61.20
2018-04-07T20:59:27.458Z,61.40
2018-04-07T21:01:55.033Z,62.60
2018-04-07T21:04:22.558Z,62.50
2018-04-07T21:06:50.934Z,61.40
2018-04-07T21:09:18.458Z,61.40
2018-04-07T21:11:45.986Z,63.30
2018-04-07T21:14:13.548Z,61.90
2018-04-07T21:16:41.076Z,63.00
2018-04-07T21:19:09.434Z,61.10
2018-04-07T21:21:36.934Z,61.00
2018-04-07T21:24:05.261Z,64.40
2018-04-07T21:26:32.795Z,64.40
2018-04-07T21:29:00.338Z,65.10
2018-04-07T21:31:27.887Z,65.30
2018-04-07T21:33:55.407Z,65.90
2018-04-07T21:36:22.961Z,66.50
2018-04-07T21:38:51.432Z,66.60
2018-04-07T21:41:18.978Z,64.50
2018-04-07T21:43:46.490Z,65.60
2018-04-07T21:46:14.780Z,65.00
2018-04-07T21:48:42.369Z,65.10
2018-04-07T21:51:09.892Z,65.80
2018-04-07T21:53:37.446Z,65.60
2018-04-07T21:56:05.000Z,65.80
2018-04-07T21:58:32.556Z,66.00
2018-04-07T22:01:00.073Z,66.60
2018-04-07T22:03:27.598Z,64.80
2018-04-07T22:05:55.161Z,66.20
2018-04-07T22:08:22.686Z,66.90
2018-04-07T22:10:51.020Z,67.00
2018-04-07T22:13:18.543Z,66.90
2018-04-07T22:15:46.115Z,66.50
2018-04-07T22:18:13.654Z,65.80
2018-04-07T22:20:41.185Z,66.90
2018-04-07T22:23:08.743Z,67.40
2018-04-07T22:25:37.058Z,67.20
2018-04-07T22:28:04.611Z,67.10
2018-04-07T22:30:32.127Z,66.80
2018-04-07T22:33:00.462Z,67.50
2018-04-07T22:35:27.980Z,66.90
2018-04-07T22:37:56.270Z,67.00
2018-04-07T22:40:23.838Z,67.00
2018-04-07T22:42:51.376Z,68.20
2018-04-07T22:45:18.934Z,68.20
2018-04-07T22:47:46.457Z,68.60
2018-04-07T22:50:14.014Z,68.80
2018-04-07T22:52:41.540Z,68.70
2018-04-07T22:55:09.067Z,68.70
2018-04-07T22:57:36.618Z,68.50
2018-04-07T23:00:04.154Z,68.30
2018-04-07T23:02:31.706Z,66.00
2018-04-07T23:04:59.239Z,67.80
2018-04-07T23:07:26.791Z,68.10
2018-04-07T23:09:54.324Z,68.10
2018-04-07T23:12:21.864Z,68.80
2018-04-07T23:14:49.409Z,68.60
2018-04-07T23:17:16.930Z,68.70
2018-04-07T23:19:44.481Z,68.70
2018-04-07T23:22:12.017Z,68.60
2018-04-07T23:24:40.341Z,68.40
2018-04-07T23:27:07.897Z,68.30
2018-04-07T23:29:35.439Z,67.90
2018-04-07T23:32:03.004Z,67.40
2018-04-07T23:34:31.536Z,67.90
2018-04-07T23:36:59.061Z,68.20
2018-04-07T23:39:26.639Z,67.20
2018-04-07T23:41:54.178Z,67.40
2018-04-07T23:44:21.726Z,67.50
2018-04-07T23:46:50.187Z,66.80
2018-04-07T23:49:17.742Z,66.60
2018-04-07T23:51:45.283Z,66.20
2018-04-07T23:54:13.613Z,64.60
2018-04-07T23:56:41.164Z,64.60
2018-04-07T23:59:08.689Z,64.70
